createdAt,value
2022-08-25T00:00:05.106Z,6.60
2022-08-25T00:00:37.277Z,5.38
2022-08-25T00:01:14.385Z,6.38
2022-08-25T00:01:52.084Z,4.35
2022-08-25T00:02:24.392Z,5.60
2022-08-25T00:02:59.269Z,5.75
2022-08-25T00:03:35.871Z,5.50
2022-08-25T00:04:14.107Z,5.55
2022-08-25T00:04:46.766Z,6.07
2022-08-25T00:05:32.424Z,5.28
2022-08-25T00:06:09.040Z,5.00
2022-08-25T00:06:43.733Z,5.50
2022-08-25T00:07:18.691Z,5.22
2022-08-25T00:07:51.027Z,5.93
2022-08-25T00:08:23.219Z,6.35
2022-08-25T00:08:59.988Z,5.45
2022-08-25T00:09:34.551Z,5.45
2022-08-25T00:10:09.319Z,6.20
2022-08-25T00:10:44.110Z,6.05
2022-08-25T00:11:34.693Z,5.85
2022-08-25T00:12:09.819Z,5.95
2022-08-25T00:12:42.009Z,6.05
2022-08-25T00:13:14.274Z,5.93
2022-08-25T00:13:51.823Z,4.72
2022-08-25T00:14:26.617Z,6.05
2022-08-25T00:15:01.936Z,5.82
2022-08-25T00:15:34.548Z,5.93
2022-08-25T00:16:07.052Z,5.10
2022-08-25T00:16:39.964Z,5.72
2022-08-25T00:17:14.670Z,6.13
2022-08-25T00:17:46.806Z,4.97
2022-08-25T00:18:19.839Z,6.15
2022-08-25T00:18:58.334Z,6.53
2022-08-25T00:19:33.459Z,6.00
2022-08-25T00:20:09.631Z,5.75
2022-08-25T00:20:48.823Z,5.57
2022-08-25T00:21:21.866Z,5.20
2022-08-25T00:21:54.299Z,6.25
2022-08-25T00:22:29.345Z,5.60
2022-08-25T00:23:01.880Z,6.95
2022-08-25T00:23:34.645Z,5.47
2022-08-25T00:24:10.502Z,5.53
2022-08-25T00:24:42.858Z,5.45
2022-08-25T00:25:15.354Z,5.47
2022-08-25T00:25:50.990Z,5.90
2022-08-25T00:26:23.953Z,6.70
2022-08-25T00:26:59.039Z,5.95
2022-08-25T00:27:34.225Z,5.65
2022-08-25T00:28:08.486Z,5.60
2022-08-25T00:28:40.967Z,6.22
2022-08-25T00:29:16.536Z,4.57
2022-08-25T00:29:48.725Z,5.50
2022-08-25T00:30:21.034Z,5.80
2022-08-25T00:30:55.805Z,5.55
2022-08-25T00:31:38.732Z,5.57
2022-08-25T00:32:13.980Z,5.93
2022-08-25T00:32:55.164Z,5.68
2022-08-25T00:33:31.402Z,5.82
2022-08-25T00:34:07.669Z,6.18
2022-08-25T00:34:40.101Z,6.95
2022-08-25T00:35:12.649Z,6.00
2022-08-25T00:35:50.485Z,6.03
2022-08-25T00:36:22.691Z,6.10
2022-08-25T00:36:54.898Z,5.70
2022-08-25T00:37:29.699Z,5.00
2022-08-25T00:38:02.394Z,5.80
2022-08-25T00:38:34.758Z,5.88
2022-08-25T00:39:10.981Z,4.95
2022-08-25T00:39:43.220Z,5.63
2022-08-25T00:40:18.113Z,5.72
2022-08-25T00:41:06.089Z,5.40
2022-08-25T00:41:42.389Z,6.10
2022-08-25T00:42:16.264Z,5.43
2022-08-25T00:42:48.651Z,5.53
2022-08-25T00:43:25.097Z,7.07
2022-08-25T00:44:00.266Z,5.82
2022-08-25T00:44:33.366Z,6.47
2022-08-25T00:45:09.680Z,6.28
2022-08-25T00:45:41.848Z,5.70
2022-08-25T00:46:18.251Z,4.93
2022-08-25T00:46:56.703Z,6.25
2022-08-25T00:47:28.902Z,5.28
2022-08-25T00:48:01.513Z,5.53
2022-08-25T00:48:36.455Z,5.90
2022-08-25T00:49:24.629Z,4.97
2022-08-25T00:50:00.254Z,5.28
2022-08-25T00:50:37.599Z,5.43
2022-08-25T00:51:15.018Z,6.05
2022-08-25T00:51:51.290Z,5.30
2022-08-25T00:52:28.703Z,5.68
2022-08-25T00:53:03.419Z,6.43
2022-08-25T00:53:36.307Z,6.10
2022-08-25T00:54:15.989Z,6.85
2022-08-25T00:54:51.127Z,5.47
2022-08-25T00:55:27.727Z,5.97
2022-08-25T00:56:02.651Z,6.20
2022-08-25T00:56:35.438Z,5.32
2022-08-25T00:57:09.367Z,5.38
2022-08-25T00:57:49.056Z,5.65
2022-08-25T00:58:25.857Z,6.15
2022-08-25T00:58:59.805Z,5.28
2022-08-25T00:59:34.826Z,6.03
2022-08-25T01:00:14.136Z,6.13
2022-08-25T01:00:49.610Z,5.97
2022-08-25T01:01:24.441Z,5.30
2022-08-25T01:01:57.709Z,6.72
2022-08-25T01:02:29.993Z,6.20
2022-08-25T01:03:05.197Z,6.13
2022-08-25T01:03:37.458Z,5.10
2022-08-25T01:04:09.655Z,5.95
2022-08-25T01:04:47.216Z,6.50
2022-08-25T01:05:24.264Z,5.70
2022-08-25T01:05:57.205Z,5.72
2022-08-25T01:06:36.457Z,5.43
2022-08-25T01:07:17.421Z,5.30
2022-08-25T01:07:50.837Z,5.57
2022-08-25T01:08:28.963Z,6.35
2022-08-25T01:09:04.098Z,5.93
2022-08-25T01:09:38.084Z,5.53
2022-08-25T01:10:12.117Z,6.03
2022-08-25T01:10:47.979Z,5.63
2022-08-25T01:11:20.231Z,5.43
2022-08-25T01:11:54.484Z,5.78
2022-08-25T01:12:29.332Z,5.72
2022-08-25T01:13:06.506Z,6.45
2022-08-25T01:13:51.332Z,6.22
2022-08-25T01:14:27.812Z,6.10
2022-08-25T01:15:02.217Z,5.45
2022-08-25T01:15:35.227Z,5.32
2022-08-25T01:16:13.119Z,5.45
2022-08-25T01:16:46.461Z,5.93
2022-08-25T01:17:23.358Z,5.57
2022-08-25T01:18:01.378Z,6.85
2022-08-25T01:18:44.950Z,6.45
2022-08-25T01:19:17.377Z,5.53
2022-08-25T01:19:52.136Z,5.57
2022-08-25T01:20:29.626Z,5.85
2022-08-25T01:21:04.524Z,5.25
2022-08-25T01:21:43.957Z,5.75
2022-08-25T01:22:17.452Z,5.87
2022-08-25T01:22:55.020Z,5.85
2022-08-25T01:23:30.298Z,5.40
2022-08-25T01:24:02.653Z,5.85
2022-08-25T01:24:40.839Z,5.68
2022-08-25T01:25:31.327Z,5.75
2022-08-25T01:26:37.870Z,5.20
2022-08-25T01:27:13.471Z,6.90
2022-08-25T01:27:45.776Z,11.00
2022-08-25T01:28:20.262Z,6.00
2022-08-25T01:29:07.562Z,5.97
2022-08-25T01:29:42.995Z,6.28
2022-08-25T01:30:15.454Z,5.32
2022-08-25T01:30:48.254Z,5.90
2022-08-25T01:31:23.940Z,5.78
2022-08-25T01:32:01.382Z,5.25
2022-08-25T01:32:34.983Z,6.43
2022-08-25T01:33:09.155Z,5.45
2022-08-25T01:33:43.907Z,6.22
2022-08-25T01:34:17.595Z,5.28
2022-08-25T01:34:49.873Z,5.50
2022-08-25T01:35:27.206Z,5.90
2022-08-25T01:35:59.623Z,6.70
2022-08-25T01:36:35.726Z,5.93
2022-08-25T01:37:12.054Z,5.90
2022-08-25T01:37:45.739Z,5.10
2022-08-25T01:38:18.675Z,6.05
2022-08-25T01:38:54.094Z,5.70
2022-08-25T01:39:28.850Z,4.97
2022-08-25T01:40:03.690Z,5.93
2022-08-25T01:40:37.159Z,7.53
2022-08-25T01:41:09.289Z,7.40
2022-08-25T01:41:52.034Z,5.65
2022-08-25T01:42:33.225Z,4.88
2022-08-25T01:43:14.887Z,5.93
2022-08-25T01:43:47.126Z,5.78
2022-08-25T01:44:19.558Z,6.10
2022-08-25T01:44:54.752Z,6.03
2022-08-25T01:45:27.562Z,5.85
2022-08-25T01:46:01.147Z,5.55
2022-08-25T01:46:36.671Z,5.85
2022-08-25T01:47:09.822Z,5.82
2022-08-25T01:47:42.235Z,6.57
2022-08-25T01:48:18.530Z,8.68
2022-08-25T01:48:50.690Z,6.13
2022-08-25T01:49:22.951Z,5.50
2022-08-25T01:49:57.968Z,6.00
2022-08-25T01:50:31.142Z,7.57
2022-08-25T01:51:03.329Z,6.50
2022-08-25T01:51:45.911Z,5.55
2022-08-25T01:52:24.085Z,5.93
2022-08-25T01:53:00.784Z,6.25
2022-08-25T01:53:35.545Z,6.18
2022-08-25T01:54:07.673Z,5.55
2022-08-25T01:54:39.931Z,6.55
2022-08-25T01:55:14.965Z,5.60
2022-08-25T01:55:54.355Z,5.22
2022-08-25T01:56:29.236Z,5.45
2022-08-25T01:57:02.114Z,5.10
2022-08-25T01:57:34.322Z,4.95
2022-08-25T01:58:09.084Z,5.40
2022-08-25T01:58:44.831Z,6.25
2022-08-25T01:59:24.241Z,5.10
2022-08-25T01:59:56.735Z,5.45
2022-08-25T02:00:31.941Z,5.25
2022-08-25T02:01:07.881Z,5.25
2022-08-25T02:01:42.687Z,5.75
2022-08-25T02:02:15.110Z,4.93
2022-08-25T02:02:54.233Z,6.13
2022-08-25T02:03:28.995Z,5.15
2022-08-25T02:04:01.424Z,5.95
2022-08-25T02:04:37.567Z,5.45
2022-08-25T02:05:10.980Z,5.75
2022-08-25T02:05:43.128Z,5.57
2022-08-25T02:06:30.065Z,5.18
2022-08-25T02:07:07.678Z,5.85
2022-08-25T02:07:40.300Z,4.55
2022-08-25T02:08:15.194Z,5.65
2022-08-25T02:08:51.262Z,4.30
2022-08-25T02:09:26.107Z,5.97
2022-08-25T02:09:58.732Z,5.07
2022-08-25T02:10:36.025Z,6.53
2022-08-25T02:11:14.794Z,5.63
2022-08-25T02:11:47.986Z,5.90
2022-08-25T02:12:20.484Z,5.60
2022-08-25T02:12:55.278Z,5.20
2022-08-25T02:13:31.509Z,5.13
2022-08-25T02:14:04.535Z,5.65
2022-08-25T02:14:39.445Z,5.72
2022-08-25T02:15:14.708Z,5.38
2022-08-25T02:15:51.025Z,5.60
2022-08-25T02:16:29.056Z,4.72
2022-08-25T02:17:01.467Z,5.60
2022-08-25T02:17:36.783Z,5.57
2022-08-25T02:18:12.128Z,4.82
2022-08-25T02:18:45.845Z,5.28
2022-08-25T02:19:19.312Z,5.80
2022-08-25T02:19:55.899Z,6.82
2022-08-25T02:20:28.119Z,5.57
2022-08-25T02:21:00.448Z,5.30
2022-08-25T02:21:33.015Z,5.50
2022-08-25T02:22:10.529Z,6.13
2022-08-25T02:22:43.438Z,5.70
2022-08-25T02:23:23.320Z,5.75
2022-08-25T02:23:56.695Z,5.78
2022-08-25T02:24:31.733Z,5.50
2022-08-25T02:25:05.842Z,5.55
2022-08-25T02:25:40.226Z,5.50
2022-08-25T02:26:19.041Z,5.25
2022-08-25T02:26:51.857Z,4.63
2022-08-25T02:27:24.529Z,8.00
2022-08-25T02:27:59.311Z,5.35
2022-08-25T02:28:31.599Z,5.50
2022-08-25T02:29:05.568Z,5.78
2022-08-25T02:29:40.331Z,5.88
2022-08-25T02:30:14.146Z,6.13
2022-08-25T02:30:46.380Z,5.15
2022-08-25T02:31:22.943Z,5.25
2022-08-25T02:31:55.113Z,5.60
2022-08-25T02:32:28.012Z,5.68
2022-08-25T02:33:02.778Z,5.78
2022-08-25T02:33:35.035Z,5.30
2022-08-25T02:34:11.448Z,5.50
2022-08-25T02:34:43.685Z,5.25
2022-08-25T02:35:16.057Z,5.05
2022-08-25T02:35:51.926Z,4.70
2022-08-25T02:36:24.796Z,5.03
2022-08-25T02:36:57.181Z,4.60
2022-08-25T02:37:35.042Z,5.25
2022-08-25T02:38:07.868Z,6.13
2022-08-25T02:38:40.298Z,4.90
2022-08-25T02:39:15.418Z,5.45
2022-08-25T02:39:47.679Z,5.18
2022-08-25T02:40:21.513Z,5.43
2022-08-25T02:40:56.443Z,5.28
2022-08-25T02:41:31.590Z,6.32
2022-08-25T02:42:04.355Z,4.97
2022-08-25T02:42:39.443Z,4.97
2022-08-25T02:43:14.921Z,5.40
2022-08-25T02:43:48.731Z,4.97
2022-08-25T02:44:23.534Z,5.65
2022-08-25T02:44:55.939Z,5.90
2022-08-25T02:45:28.298Z,6.78
2022-08-25T02:46:03.117Z,5.47
2022-08-25T02:46:39.068Z,4.82
2022-08-25T02:47:11.270Z,6.13
2022-08-25T02:47:46.211Z,5.45
2022-08-25T02:48:18.410Z,5.90
2022-08-25T02:48:52.979Z,5.63
2022-08-25T02:49:28.476Z,5.53
2022-08-25T02:50:00.650Z,6.18
2022-08-25T02:50:33.454Z,6.32
2022-08-25T02:51:12.439Z,5.15
2022-08-25T02:51:44.646Z,5.65
2022-08-25T02:52:17.265Z,4.85
2022-08-25T02:52:55.158Z,6.07
2022-08-25T02:53:28.704Z,5.05
2022-08-25T02:54:02.698Z,5.45
2022-08-25T02:54:37.924Z,7.20
2022-08-25T02:55:14.407Z,4.80
2022-08-25T02:55:47.684Z,6.07
2022-08-25T02:56:23.894Z,5.25
2022-08-25T02:56:56.124Z,4.75
2022-08-25T02:57:31.085Z,5.07
2022-08-25T02:58:03.338Z,5.82
2022-08-25T02:58:35.694Z,6.13
2022-08-25T02:59:11.116Z,6.25
2022-08-25T02:59:43.391Z,5.68
2022-08-25T03:00:17.205Z,5.03
2022-08-25T03:00:53.069Z,4.97
2022-08-25T03:01:28.641Z,6.50
2022-08-25T03:02:03.878Z,6.28
2022-08-25T03:02:36.090Z,5.90
2022-08-25T03:03:10.049Z,6.03
2022-08-25T03:03:47.067Z,5.70
2022-08-25T03:04:19.387Z,5.40
2022-08-25T03:04:52.433Z,6.13
2022-08-25T03:05:30.273Z,5.38
2022-08-25T03:06:02.573Z,5.63
2022-08-25T03:06:37.477Z,5.78
2022-08-25T03:07:10.986Z,5.10
2022-08-25T03:07:44.847Z,6.20
2022-08-25T03:08:22.172Z,5.75
2022-08-25T03:08:54.939Z,5.70
2022-08-25T03:09:27.698Z,5.82
2022-08-25T03:10:02.694Z,5.22
2022-08-25T03:10:35.553Z,7.03
2022-08-25T03:11:07.763Z,5.78
2022-08-25T03:11:42.610Z,5.22
2022-08-25T03:12:15.127Z,5.22
2022-08-25T03:12:47.822Z,5.55
2022-08-25T03:13:20.015Z,5.45
2022-08-25T03:13:54.902Z,5.45
2022-08-25T03:14:27.147Z,6.13
2022-08-25T03:14:59.510Z,6.07
2022-08-25T03:15:37.810Z,5.90
2022-08-25T03:16:11.330Z,5.78
2022-08-25T03:16:46.314Z,6.50
2022-08-25T03:17:21.406Z,5.40
2022-08-25T03:17:55.735Z,5.45
2022-08-25T03:18:35.116Z,7.15
2022-08-25T03:19:07.373Z,5.70
2022-08-25T03:19:39.577Z,5.90
2022-08-25T03:20:15.612Z,6.10
2022-08-25T03:20:47.787Z,5.65
2022-08-25T03:21:21.269Z,6.50
2022-08-25T03:21:57.090Z,7.22
2022-08-25T03:22:29.315Z,7.80
2022-08-25T03:23:01.594Z,8.48
2022-08-25T03:23:39.082Z,8.95
2022-08-25T03:24:11.341Z,7.50
2022-08-25T03:24:43.557Z,8.80
2022-08-25T03:25:34.026Z,7.05
2022-08-25T03:26:21.769Z,7.20
2022-08-25T03:26:57.272Z,7.85
2022-08-25T03:27:30.511Z,9.32
2022-08-25T03:28:04.232Z,8.63
2022-08-25T03:28:36.649Z,7.57
2022-08-25T03:29:12.096Z,7.78
2022-08-25T03:29:44.247Z,7.72
2022-08-25T03:30:16.888Z,5.80
2022-08-25T03:30:55.751Z,6.45
2022-08-25T03:31:31.997Z,5.80
2022-08-25T03:32:05.425Z,6.53
2022-08-25T03:32:38.710Z,5.43
2022-08-25T03:33:14.039Z,5.72
2022-08-25T03:33:46.738Z,6.00
2022-08-25T03:34:22.749Z,5.47
2022-08-25T03:34:55.025Z,5.30
2022-08-25T03:35:27.313Z,6.20
2022-08-25T03:36:02.777Z,6.15
2022-08-25T03:36:37.818Z,6.18
2022-08-25T03:37:10.281Z,5.63
2022-08-25T03:37:42.490Z,5.80
2022-08-25T03:38:17.277Z,6.85
2022-08-25T03:38:52.462Z,6.72
2022-08-25T03:39:26.195Z,5.30
2022-08-25T03:40:00.995Z,5.60
2022-08-25T03:40:33.332Z,5.53
2022-08-25T03:41:12.729Z,6.13
2022-08-25T03:41:48.238Z,5.95
2022-08-25T03:42:20.433Z,6.28
2022-08-25T03:42:52.874Z,5.30
2022-08-25T03:43:27.662Z,5.50
2022-08-25T03:44:01.334Z,6.80
2022-08-25T03:44:33.829Z,5.93
2022-08-25T03:45:11.763Z,6.13
2022-08-25T03:45:45.439Z,5.55
2022-08-25T03:46:19.982Z,7.38
2022-08-25T03:46:55.639Z,7.40
2022-08-25T03:47:29.558Z,5.50
2022-08-25T03:48:01.867Z,5.50
2022-08-25T03:48:36.892Z,6.05
2022-08-25T03:49:11.955Z,5.57
2022-08-25T03:49:44.087Z,6.35
2022-08-25T03:50:21.078Z,5.68
2022-08-25T03:50:54.872Z,6.82
2022-08-25T03:51:29.477Z,5.82
2022-08-25T03:52:04.260Z,5.93
2022-08-25T03:52:42.244Z,5.88
2022-08-25T03:53:14.936Z,5.93
2022-08-25T03:53:47.306Z,6.22
2022-08-25T03:54:27.164Z,6.53
2022-08-25T03:54:59.451Z,5.55
2022-08-25T03:55:31.716Z,5.60
2022-08-25T03:56:07.598Z,6.97
2022-08-25T03:56:40.726Z,5.43
2022-08-25T03:57:16.027Z,7.22
2022-08-25T03:57:48.282Z,6.82
2022-08-25T03:58:22.502Z,6.50
2022-08-25T03:58:57.672Z,6.10
2022-08-25T03:59:30.630Z,5.25
2022-08-25T04:00:03.910Z,5.97
2022-08-25T04:00:46.681Z,5.63
2022-08-25T04:01:18.962Z,5.80
2022-08-25T04:01:55.439Z,6.22
2022-08-25T04:02:28.080Z,7.35
2022-08-25T04:03:00.398Z,6.28
2022-08-25T04:03:35.373Z,5.82
2022-08-25T04:04:09.165Z,7.03
2022-08-25T04:04:41.451Z,7.05
2022-08-25T04:05:16.779Z,6.53
2022-08-25T04:05:48.953Z,7.97
2022-08-25T04:06:24.018Z,5.53
2022-08-25T04:06:56.250Z,5.90
2022-08-25T04:07:28.613Z,5.32
2022-08-25T04:08:04.806Z,6.32
2022-08-25T04:08:38.051Z,6.90
2022-08-25T04:09:10.742Z,7.03
2022-08-25T04:09:48.323Z,6.55
2022-08-25T04:10:20.785Z,5.57
2022-08-25T04:10:52.940Z,6.93
2022-08-25T04:11:28.929Z,6.20
2022-08-25T04:12:01.294Z,5.57
2022-08-25T04:12:33.757Z,6.63
2022-08-25T04:13:08.581Z,6.63
2022-08-25T04:13:42.481Z,6.93
2022-08-25T04:14:16.582Z,6.57
2022-08-25T04:14:49.251Z,7.65
2022-08-25T04:15:27.107Z,10.02
2022-08-25T04:16:02.575Z,7.07
2022-08-25T04:16:35.877Z,6.95
2022-08-25T04:17:10.906Z,6.60
2022-08-25T04:17:43.145Z,6.72
2022-08-25T04:18:16.865Z,7.47
2022-08-25T04:18:52.495Z,6.63
2022-08-25T04:19:24.732Z,6.00
2022-08-25T04:19:57.477Z,7.55
2022-08-25T04:20:32.320Z,7.50
2022-08-25T04:21:05.638Z,6.93
2022-08-25T04:21:39.134Z,6.97
2022-08-25T04:22:14.229Z,5.90
2022-08-25T04:22:47.010Z,6.20
2022-08-25T04:23:19.154Z,6.63
2022-08-25T04:23:55.724Z,7.43
2022-08-25T04:24:27.962Z,7.55
2022-08-25T04:25:03.002Z,7.85
2022-08-25T04:25:38.596Z,6.35
2022-08-25T04:26:11.977Z,7.57
2022-08-25T04:26:46.492Z,7.25
2022-08-25T04:27:21.226Z,6.93
2022-08-25T04:27:53.487Z,6.43
2022-08-25T04:28:25.687Z,7.60
2022-08-25T04:29:02.109Z,5.82
2022-08-25T04:29:34.510Z,8.40
2022-08-25T04:30:08.116Z,7.20
2022-08-25T04:30:49.111Z,7.03
2022-08-25T04:31:24.400Z,8.40
2022-08-25T04:31:56.706Z,7.85
2022-08-25T04:32:32.336Z,7.35
2022-08-25T04:33:04.549Z,8.15
2022-08-25T04:33:38.325Z,8.00
2022-08-25T04:34:29.419Z,8.35
2022-08-25T04:35:04.511Z,7.80
2022-08-25T04:35:36.724Z,8.05
2022-08-25T04:36:14.449Z,6.68
2022-08-25T04:36:46.947Z,7.00
2022-08-25T04:37:24.953Z,7.10
2022-08-25T04:37:59.878Z,6.53
2022-08-25T04:38:32.561Z,7.65
2022-08-25T04:39:04.958Z,6.28
2022-08-25T04:39:39.841Z,6.18
2022-08-25T04:40:14.969Z,6.65
2022-08-25T04:40:56.800Z,6.65
2022-08-25T04:41:32.109Z,6.82
2022-08-25T04:42:05.607Z,7.18
2022-08-25T04:42:39.460Z,8.15
2022-08-25T04:43:14.229Z,7.53
2022-08-25T04:43:46.835Z,9.52
2022-08-25T04:44:19.129Z,8.43
2022-08-25T04:44:54.599Z,9.02
2022-08-25T04:45:26.940Z,6.35
2022-08-25T04:46:00.184Z,8.20
2022-08-25T04:46:37.072Z,7.97
2022-08-25T04:47:09.872Z,7.47
2022-08-25T04:47:42.064Z,7.43
2022-08-25T04:48:16.827Z,6.90
2022-08-25T04:48:49.678Z,6.75
2022-08-25T04:49:21.912Z,7.47
2022-08-25T04:49:56.755Z,7.00
2022-08-25T04:50:29.773Z,8.30
2022-08-25T04:51:05.591Z,9.48
2022-08-25T04:51:42.670Z,7.43
2022-08-25T04:52:14.925Z,7.55
2022-08-25T04:52:47.097Z,7.00
2022-08-25T04:53:22.242Z,7.75
2022-08-25T04:53:54.572Z,7.07
2022-08-25T04:54:28.295Z,6.90
2022-08-25T04:55:03.261Z,6.60
2022-08-25T04:55:43.059Z,6.82
2022-08-25T04:56:18.213Z,6.00
2022-08-25T04:56:58.297Z,6.50
2022-08-25T04:57:31.039Z,7.03
2022-08-25T04:58:03.668Z,6.28
2022-08-25T04:58:39.423Z,6.95
2022-08-25T04:59:14.509Z,7.78
2022-08-25T04:59:46.777Z,6.03
2022-08-25T05:00:22.088Z,9.65
2022-08-25T05:01:01.391Z,7.57
2022-08-25T05:01:34.260Z,7.00
2022-08-25T05:02:10.101Z,7.28
2022-08-25T05:02:42.428Z,7.75
2022-08-25T05:03:14.806Z,7.07
2022-08-25T05:03:49.105Z,6.13
2022-08-25T05:04:27.717Z,8.45
2022-08-25T05:05:01.584Z,8.18
2022-08-25T05:05:37.224Z,6.82
2022-08-25T05:06:15.826Z,7.43
2022-08-25T05:06:48.948Z,7.65
2022-08-25T05:07:21.235Z,7.45
2022-08-25T05:07:56.116Z,6.32
2022-08-25T05:08:28.744Z,7.38
2022-08-25T05:09:02.229Z,7.05
2022-08-25T05:09:37.997Z,7.25
2022-08-25T05:10:10.565Z,7.47
2022-08-25T05:10:45.496Z,5.28
2022-08-25T05:11:21.980Z,7.47
2022-08-25T05:11:56.146Z,6.60
2022-08-25T05:12:29.110Z,6.30
2022-08-25T05:13:04.068Z,6.88
2022-08-25T05:13:36.821Z,7.28
2022-08-25T05:14:12.277Z,6.20
2022-08-25T05:14:47.335Z,7.25
2022-08-25T05:15:34.872Z,7.05
2022-08-25T05:16:09.832Z,8.80
2022-08-25T05:16:46.288Z,9.05
2022-08-25T05:17:19.265Z,7.93
2022-08-25T05:17:56.104Z,7.75
2022-08-25T05:18:33.433Z,6.63
2022-08-25T05:19:05.824Z,7.22
2022-08-25T05:19:40.730Z,6.90
2022-08-25T05:20:12.940Z,7.85
2022-08-25T05:20:45.753Z,6.88
2022-08-25T05:21:25.076Z,6.32
2022-08-25T05:21:57.927Z,5.78
2022-08-25T05:22:33.529Z,6.20
2022-08-25T05:23:05.938Z,6.68
2022-08-25T05:23:41.273Z,7.95
2022-08-25T05:24:16.083Z,8.15
2022-08-25T05:24:49.062Z,6.45
2022-08-25T05:25:21.249Z,7.88
2022-08-25T05:25:59.527Z,6.90
2022-08-25T05:26:34.974Z,6.25
2022-08-25T05:27:07.113Z,6.53
2022-08-25T05:27:42.153Z,6.20
2022-08-25T05:28:15.322Z,6.10
2022-08-25T05:28:49.065Z,6.03
2022-08-25T05:29:24.052Z,7.70
2022-08-25T05:29:56.232Z,7.90
2022-08-25T05:30:28.632Z,7.97
2022-08-25T05:31:05.640Z,7.55
2022-08-25T05:31:43.074Z,8.23
2022-08-25T05:32:18.813Z,7.47
2022-08-25T05:32:51.023Z,7.70
2022-08-25T05:33:23.250Z,6.72
2022-08-25T05:33:58.234Z,6.28
2022-08-25T05:34:31.265Z,7.40
2022-08-25T05:35:03.790Z,7.05
2022-08-25T05:35:38.997Z,6.45
2022-08-25T05:36:13.451Z,6.65
2022-08-25T05:36:48.712Z,6.55
2022-08-25T05:37:20.901Z,8.02
2022-08-25T05:37:53.086Z,7.05
2022-08-25T05:38:27.882Z,6.97
2022-08-25T05:39:00.147Z,9.85
2022-08-25T05:39:35.167Z,6.53
2022-08-25T05:40:09.014Z,7.95
2022-08-25T05:40:41.286Z,8.85
2022-08-25T05:41:20.541Z,9.05
2022-08-25T05:41:52.651Z,7.75
2022-08-25T05:42:25.259Z,7.32
2022-08-25T05:43:00.108Z,7.60
2022-08-25T05:43:32.949Z,8.93
2022-08-25T05:44:08.210Z,11.05
2022-08-25T05:44:40.447Z,9.93
2022-08-25T05:45:15.840Z,10.07
2022-08-25T05:45:56.800Z,7.80
2022-08-25T05:46:30.539Z,11.70
2022-08-25T05:47:04.502Z,11.38
2022-08-25T05:47:39.292Z,11.95
2022-08-25T05:48:12.987Z,10.18
2022-08-25T05:48:45.848Z,9.38
2022-08-25T05:49:20.906Z,8.40
2022-08-25T05:49:53.129Z,8.85
2022-08-25T05:50:25.457Z,7.38
2022-08-25T05:51:02.731Z,7.85
2022-08-25T05:51:34.885Z,7.28
2022-08-25T05:52:09.805Z,10.15
2022-08-25T05:52:42.046Z,7.88
2022-08-25T05:53:14.171Z,8.30
2022-08-25T05:53:51.956Z,6.95
2022-08-25T05:54:24.468Z,7.95
2022-08-25T05:54:56.634Z,8.15
2022-08-25T05:55:31.596Z,8.50
2022-08-25T05:56:04.366Z,9.35
2022-08-25T05:56:40.205Z,7.78
2022-08-25T05:57:14.952Z,8.88
2022-08-25T05:57:47.199Z,7.75
2022-08-25T05:58:19.594Z,7.03
2022-08-25T05:58:54.379Z,7.22
2022-08-25T05:59:26.834Z,7.47
2022-08-25T05:59:59.039Z,7.40
2022-08-25T06:00:33.897Z,8.02
2022-08-25T06:01:21.465Z,7.85
2022-08-25T06:02:08.910Z,7.95
2022-08-25T06:02:41.554Z,8.15
2022-08-25T06:03:13.788Z,7.78
2022-08-25T06:03:46.736Z,7.45
2022-08-25T06:04:22.753Z,7.30
2022-08-25T06:04:54.918Z,7.40
2022-08-25T06:05:29.764Z,9.23
2022-08-25T06:06:07.305Z,6.57
2022-08-25T06:06:40.370Z,8.60
2022-08-25T06:07:15.241Z,8.85
2022-08-25T06:07:48.850Z,7.55
2022-08-25T06:08:21.183Z,9.13
2022-08-25T06:08:56.000Z,8.07
2022-08-25T06:09:28.225Z,7.53
2022-08-25T06:10:00.397Z,7.97
2022-08-25T06:10:35.574Z,7.75
2022-08-25T06:11:07.795Z,9.30
2022-08-25T06:11:43.123Z,8.05
2022-08-25T06:12:17.870Z,8.07
2022-08-25T06:12:50.278Z,7.60
2022-08-25T06:13:28.791Z,7.32
2022-08-25T06:14:03.930Z,9.00
2022-08-25T06:14:36.190Z,7.82
2022-08-25T06:15:13.411Z,7.68
2022-08-25T06:15:45.549Z,7.72
2022-08-25T06:16:18.443Z,7.28
2022-08-25T06:16:53.951Z,7.22
2022-08-25T06:17:26.174Z,7.10
2022-08-25T06:18:01.710Z,8.77
2022-08-25T06:18:36.868Z,10.65
2022-08-25T06:19:10.622Z,8.90
2022-08-25T06:19:45.962Z,9.80
2022-08-25T06:20:22.137Z,10.32
2022-08-25T06:20:57.717Z,7.75
2022-08-25T06:21:32.564Z,11.60
2022-08-25T06:22:04.752Z,9.23
2022-08-25T06:22:37.815Z,6.95
2022-08-25T06:23:13.061Z,7.63
2022-08-25T06:23:45.257Z,7.57
2022-08-25T06:24:17.533Z,8.75
2022-08-25T06:24:52.326Z,11.80
2022-08-25T06:25:26.237Z,14.63
2022-08-25T06:26:00.974Z,10.63
2022-08-25T06:26:33.841Z,11.43
2022-08-25T06:27:08.704Z,8.05
2022-08-25T06:27:43.686Z,8.35
2022-08-25T06:28:15.983Z,7.32
2022-08-25T06:28:50.981Z,8.52
2022-08-25T06:29:23.269Z,8.00
2022-08-25T06:29:58.043Z,7.57
2022-08-25T06:30:39.383Z,8.02
2022-08-25T06:31:14.346Z,8.07
2022-08-25T06:31:47.338Z,8.13
2022-08-25T06:32:19.598Z,7.72
2022-08-25T06:32:54.355Z,6.55
2022-08-25T06:33:26.474Z,7.88
2022-08-25T06:34:01.228Z,7.90
2022-08-25T06:34:34.146Z,9.52
2022-08-25T06:35:11.610Z,8.40
2022-08-25T06:35:44.585Z,9.55
2022-08-25T06:36:19.436Z,8.25
2022-08-25T06:36:51.771Z,7.95
2022-08-25T06:37:25.324Z,7.72
2022-08-25T06:38:00.548Z,8.85
2022-08-25T06:38:32.819Z,9.32
2022-08-25T06:39:08.029Z,9.02
2022-08-25T06:39:42.942Z,8.10
2022-08-25T06:40:18.611Z,8.73
2022-08-25T06:40:52.190Z,8.15
2022-08-25T06:41:36.506Z,8.98
2022-08-25T06:43:09.014Z,10.57
2022-08-25T06:43:47.993Z,10.27
2022-08-25T06:44:26.415Z,9.60
2022-08-25T06:44:58.591Z,10.60
2022-08-25T06:45:33.671Z,10.18
2022-08-25T06:46:10.408Z,8.90
2022-08-25T06:46:42.717Z,9.02
2022-08-25T06:47:18.124Z,9.70
2022-08-25T06:47:50.989Z,9.55
2022-08-25T06:48:26.128Z,9.90
2022-08-25T06:48:58.421Z,10.25
2022-08-25T06:49:35.589Z,10.18
2022-08-25T06:50:11.792Z,9.88
2022-08-25T06:50:44.880Z,8.52
2022-08-25T06:51:21.980Z,9.10
2022-08-25T06:51:54.253Z,9.70
2022-08-25T06:52:29.553Z,7.93
2022-08-25T06:53:01.855Z,8.05
2022-08-25T06:53:37.033Z,9.25
2022-08-25T06:54:11.181Z,9.23
2022-08-25T06:54:45.963Z,7.70
2022-08-25T06:55:21.826Z,9.63
2022-08-25T06:56:05.944Z,7.55
2022-08-25T06:56:40.436Z,7.90
2022-08-25T06:57:15.869Z,10.88
2022-08-25T06:57:53.103Z,8.07
2022-08-25T06:58:27.370Z,9.25
2022-08-25T06:59:04.094Z,8.90
2022-08-25T06:59:37.527Z,9.00
2022-08-25T07:00:14.610Z,10.57
2022-08-25T07:00:49.445Z,9.88
2022-08-25T07:01:26.394Z,8.32
2022-08-25T07:02:03.105Z,8.20
2022-08-25T07:02:35.667Z,9.13
2022-08-25T07:03:10.970Z,10.70
2022-08-25T07:03:43.934Z,8.85
2022-08-25T07:04:16.181Z,9.35
2022-08-25T07:04:53.681Z,9.02
2022-08-25T07:05:33.594Z,8.13
2022-08-25T07:06:12.928Z,8.10
2022-08-25T07:06:47.908Z,8.60
2022-08-25T07:07:20.337Z,8.10
2022-08-25T07:07:52.566Z,8.65
2022-08-25T07:08:27.374Z,8.88
2022-08-25T07:09:00.118Z,9.93
2022-08-25T07:09:35.200Z,9.65
2022-08-25T07:10:13.287Z,14.27
2022-08-25T07:10:48.059Z,10.75
2022-08-25T07:11:21.582Z,11.38
2022-08-25T07:11:56.711Z,9.05
2022-08-25T07:12:29.054Z,9.60
2022-08-25T07:13:06.537Z,8.02
2022-08-25T07:13:39.456Z,10.85
2022-08-25T07:14:13.961Z,10.75
2022-08-25T07:15:03.477Z,11.27
2022-08-25T07:15:38.552Z,6.90
2022-08-25T07:16:15.683Z,7.95
2022-08-25T07:16:50.425Z,9.55
2022-08-25T07:17:27.294Z,9.73
2022-08-25T07:17:59.897Z,8.20
2022-08-25T07:18:35.190Z,9.15
2022-08-25T07:19:08.434Z,10.32
2022-08-25T07:19:41.001Z,9.77
2022-08-25T07:20:16.105Z,10.40
2022-08-25T07:20:48.703Z,11.43
2022-08-25T07:21:24.778Z,8.38
2022-08-25T07:22:03.559Z,8.25
2022-08-25T07:22:35.896Z,10.90
2022-08-25T07:23:08.084Z,12.10
2022-08-25T07:23:43.381Z,12.77
2022-08-25T07:24:15.616Z,9.40
2022-08-25T07:24:47.917Z,8.85
2022-08-25T07:25:22.763Z,7.45
2022-08-25T07:25:55.710Z,10.00
2022-08-25T07:26:37.841Z,10.05
2022-08-25T07:27:13.216Z,8.85
2022-08-25T07:27:45.578Z,10.02
2022-08-25T07:28:21.953Z,8.50
2022-08-25T07:28:57.054Z,8.93
2022-08-25T07:29:32.555Z,8.05
2022-08-25T07:30:11.266Z,8.30
2022-08-25T07:30:44.438Z,10.50
2022-08-25T07:32:04.534Z,9.38
2022-08-25T07:32:36.832Z,9.45
2022-08-25T07:33:09.356Z,10.23
2022-08-25T07:34:05.251Z,8.43
2022-08-25T07:34:53.290Z,9.10
2022-08-25T07:35:27.442Z,9.55
2022-08-25T07:36:09.922Z,12.25
2022-08-25T07:36:43.162Z,11.00
2022-08-25T07:37:27.582Z,10.38
2022-08-25T07:38:09.070Z,9.50
2022-08-25T07:38:47.612Z,9.38
2022-08-25T07:39:22.143Z,12.23
2022-08-25T07:39:54.681Z,9.07
2022-08-25T07:40:32.154Z,8.20
2022-08-25T07:41:05.425Z,8.25
2022-08-25T07:41:40.083Z,8.88
2022-08-25T07:42:17.028Z,8.98
2022-08-25T07:42:52.491Z,8.18
2022-08-25T07:43:29.866Z,9.05
2022-08-25T07:44:02.045Z,8.40
2022-08-25T07:44:36.872Z,8.98
2022-08-25T07:45:11.104Z,7.57